This is the latest recevied weather packets stored in our database for station/object KC3WWU. If no packets are shown the sender has not sent any weather packets the latest 1 day(s).
| Time | Temp. | Humidity | Pressure | Rain* | Wind** | Luminosity | Snow |
|---|---|---|---|---|---|---|---|
| 1778035149 | 14.44° C | 75% | 1007 hPa | 0 mm | 0 m/s | 0 W/m² | - |
| 1778034847 | 15° C | 76% | 1007.1 hPa | 0 mm | 0 m/s | 0 W/m² | - |
| 1778034543 | 15° C | 75% | 1007 hPa | 0 mm | 0 m/s | 0 W/m² | - |
| 1778034241 | 15° C | 75% | 1007 hPa | 0 mm | 0.45 m/s, 76° | 0 W/m² | - |
| 1778033939 | 15° C | 73% | 1007.1 hPa | 0 mm | 0 m/s | 0 W/m² | - |
| 1778033635 | 15° C | 74% | 1007 hPa | 0 mm | 0 m/s | 0 W/m² | - |
| 1778033332 | 15° C | 74% | 1007 hPa | 0 mm | 0.45 m/s, 59° | 0 W/m² | - |
| 1778033030 | 15.56° C | 72% | 1007.1 hPa | 0 mm | 0 m/s | 0 W/m² | - |
| 1778032727 | 15.56° C | 72% | 1007.1 hPa | 0 mm | 0 m/s | 0 W/m² | - |
| 1778032425 | 15.56° C | 72% | 1007.1 hPa | 0 mm | 0 m/s | 0 W/m² | - |
| 1778032121 | 16.11° C | 71% | 1007 hPa | 0 mm | 0.45 m/s, 72° | 0 W/m² | - |
| 1778031818 | 15.56° C | 73% | 1007.1 hPa | 0 mm | 0 m/s | 0 W/m² | - |
| 1778031514 | 15.56° C | 70% | 1007.1 hPa | 0 mm | 0 m/s | 0 W/m² | - |
| 1778031212 | 15.56° C | 71% | 1007.1 hPa | 0 mm | 0 m/s | 0 W/m² | - |
| 1778030908 | 16.11° C | 71% | 1007.2 hPa | 0 mm | 0 m/s | 0 W/m² | - |
| 1778030606 | 16.67° C | 68% | 1007.1 hPa | 0 mm | 0.45 m/s, 75° | 0 W/m² | - |
| 1778030303 | 16.67° C | 68% | 1007.1 hPa | 0 mm | 0.45 m/s, 69° | 0 W/m² | - |
| 1778029999 | 16.67° C | 68% | 1007 hPa | 0 mm | 0 m/s | 0 W/m² | - |
| 1778029697 | 17.22° C | 64% | 1006.9 hPa | 0 mm | 0.89 m/s, 61° | 0 W/m² | - |
| 1778029395 | 17.78° C | 62% | 1006.7 hPa | 0 mm | 0 m/s | 0 W/m² | - |
| 1778029091 | 18.33° C | 63% | 1007 hPa | 0 mm | 0 m/s | 0 W/m² | - |
| 1778028788 | 18.33° C | 64% | 1006.9 hPa | 0 mm | 0 m/s | 0 W/m² | - |
| 1778028484 | 18.89° C | 60% | 1007 hPa | 0 mm | 0 m/s | 0 W/m² | - |
| 1778028182 | 18.33° C | 62% | 1007 hPa | 0 mm | 0 m/s | 0 W/m² | - |
| 1778027878 | 18.89° C | 61% | 1006.8 hPa | 0 mm | 0.45 m/s, 339° | 0 W/m² | - |
* Rain latest hour (hover to see other rain measurements)
** Current wind speed in m/s (hover to see current wind gust speed)